createdAt,value
2018-08-24T00:01:07.428Z,18.10
2018-08-24T00:03:35.597Z,18.00
2018-08-24T00:06:04.085Z,18.10
2018-08-24T00:08:32.227Z,18.00
2018-08-24T00:11:00.381Z,18.00
2018-08-24T00:13:30.195Z,18.00
2018-08-24T00:15:59.268Z,18.00
2018-08-24T00:18:28.442Z,17.90
2018-08-24T00:20:56.619Z,17.90
2018-08-24T00:23:24.791Z,17.90
2018-08-24T00:25:52.941Z,17.90
2018-08-24T00:28:21.261Z,17.90
2018-08-24T00:30:49.408Z,17.90
2018-08-24T00:33:17.639Z,17.90
2018-08-24T00:35:45.821Z,17.90
2018-08-24T00:38:14.307Z,18.00
2018-08-24T00:40:43.307Z,18.00
2018-08-24T00:43:11.512Z,18.00
2018-08-24T00:45:40.028Z,18.10
2018-08-24T00:48:08.314Z,18.10
2018-08-24T00:50:37.791Z,18.10
2018-08-24T00:53:05.945Z,18.10
2018-08-24T00:55:34.160Z,18.10
2018-08-24T00:58:03.236Z,18.00
2018-08-24T01:00:36.808Z,17.90
2018-08-24T01:03:05.050Z,17.90
2018-08-24T01:05:34.016Z,18.00
2018-08-24T01:08:08.252Z,18.00
2018-08-24T01:10:36.935Z,18.10
2018-08-24T01:13:10.288Z,18.10
2018-08-24T01:15:48.060Z,18.10
2018-08-24T01:18:19.220Z,18.10
2018-08-24T01:20:49.931Z,18.10
2018-08-24T01:23:21.341Z,18.10
2018-08-24T01:25:49.832Z,18.00
2018-08-24T01:28:19.659Z,18.00
2018-08-24T01:30:49.060Z,18.00
2018-08-24T01:33:17.759Z,18.00
2018-08-24T01:35:47.041Z,18.00
2018-08-24T01:38:15.825Z,18.10
2018-08-24T01:40:43.984Z,18.10
2018-08-24T01:43:12.284Z,18.10
2018-08-24T01:45:40.424Z,18.10
2018-08-24T01:48:09.728Z,18.00
2018-08-24T01:50:39.317Z,18.00
2018-08-24T01:53:08.153Z,17.90
2018-08-24T01:55:36.330Z,17.80
2018-08-24T01:58:04.801Z,17.80
2018-08-24T02:00:32.942Z,17.70
2018-08-24T02:03:01.127Z,17.60
2018-08-24T02:05:29.506Z,17.50
2018-08-24T02:07:57.708Z,17.30
2018-08-24T02:10:27.665Z,17.10
2018-08-24T02:13:01.372Z,17.00
2018-08-24T02:15:30.692Z,16.90
2018-08-24T02:18:04.224Z,16.80
2018-08-24T02:20:38.240Z,16.80
2018-08-24T02:23:12.548Z,16.80
2018-08-24T02:25:40.944Z,16.80
2018-08-24T02:28:09.112Z,16.80
2018-08-24T02:30:37.387Z,16.90
2018-08-24T02:33:06.853Z,16.90
2018-08-24T02:35:35.028Z,16.90
2018-08-24T02:38:04.852Z,16.90
2018-08-24T02:40:35.025Z,16.90
2018-08-24T02:43:03.685Z,16.80
2018-08-24T02:45:31.899Z,16.70
2018-08-24T02:48:00.108Z,16.70
2018-08-24T02:50:28.263Z,16.70
2018-08-24T02:52:56.444Z,16.70
2018-08-24T02:55:25.437Z,16.70
2018-08-24T02:57:53.618Z,16.70
2018-08-24T03:00:22.601Z,16.70
2018-08-24T03:02:50.740Z,16.70
2018-08-24T03:05:19.704Z,16.80
2018-08-24T03:07:47.692Z,16.80
2018-08-24T03:10:15.872Z,16.80
2018-08-24T03:12:45.500Z,16.80
2018-08-24T03:15:13.669Z,16.70
2018-08-24T03:17:47.324Z,16.80
2018-08-24T03:20:15.511Z,16.80
2018-08-24T03:22:43.680Z,16.90
2018-08-24T03:25:11.828Z,16.90
2018-08-24T03:27:40.011Z,17.00
2018-08-24T03:30:08.162Z,17.00
2018-08-24T03:32:36.336Z,17.00
2018-08-24T03:35:04.508Z,17.00
2018-08-24T03:37:33.196Z,17.10
2018-08-24T03:40:02.116Z,17.00
2018-08-24T03:42:30.328Z,17.00
2018-08-24T03:44:58.480Z,17.00
2018-08-24T03:47:26.693Z,17.00
2018-08-24T03:49:54.882Z,17.00
2018-08-24T03:52:23.089Z,17.00
2018-08-24T03:54:51.268Z,17.00
2018-08-24T03:57:21.156Z,16.90
2018-08-24T03:59:49.657Z,16.80
2018-08-24T04:02:18.163Z,16.80
2018-08-24T04:04:46.305Z,16.90
2018-08-24T04:07:14.472Z,17.00
2018-08-24T04:09:42.614Z,17.00
2018-08-24T04:12:10.772Z,17.00
2018-08-24T04:14:39.380Z,17.00
2018-08-24T04:17:13.449Z,17.00
2018-08-24T04:19:42.618Z,17.00
2018-08-24T04:22:11.055Z,16.90
2018-08-24T04:24:39.268Z,16.90
2018-08-24T04:27:07.503Z,16.90
2018-08-24T04:29:35.700Z,16.90
2018-08-24T04:32:03.872Z,16.80
2018-08-24T04:34:32.048Z,16.70
2018-08-24T04:37:00.475Z,16.70
2018-08-24T04:39:28.966Z,16.70
2018-08-24T04:41:57.088Z,16.70
2018-08-24T04:44:25.244Z,16.80
2018-08-24T04:46:53.449Z,16.70
2018-08-24T04:49:21.606Z,16.60
2018-08-24T04:51:50.293Z,16.60
2018-08-24T04:54:18.440Z,16.70
2018-08-24T04:56:46.884Z,16.70
2018-08-24T04:59:15.104Z,16.70
2018-08-24T05:01:43.845Z,16.70
2018-08-24T05:04:12.088Z,16.70
2018-08-24T05:06:40.563Z,16.70
2018-08-24T05:09:09.888Z,16.70
2018-08-24T05:11:39.748Z,16.70
2018-08-24T05:14:08.605Z,16.70
2018-08-24T05:16:36.768Z,16.70
2018-08-24T05:19:05.170Z,16.70
2018-08-24T05:21:33.336Z,16.70
2018-08-24T05:24:01.532Z,16.70
2018-08-24T05:26:31.344Z,16.80
2018-08-24T05:28:59.504Z,16.90
2018-08-24T05:31:27.663Z,17.00
2018-08-24T05:33:55.816Z,17.10
2018-08-24T05:36:23.989Z,17.10
2018-08-24T05:38:53.420Z,17.20
2018-08-24T05:41:21.645Z,17.30
2018-08-24T05:43:49.877Z,17.30
2018-08-24T05:46:18.085Z,17.10
2018-08-24T05:48:47.038Z,17.10
2018-08-24T05:51:15.227Z,17.20
2018-08-24T05:53:43.397Z,17.30
2018-08-24T05:56:11.542Z,17.30
2018-08-24T05:58:39.712Z,17.30
2018-08-24T06:01:07.869Z,17.50
2018-08-24T06:03:37.074Z,17.70
2018-08-24T06:06:06.129Z,18.00
2018-08-24T06:08:34.297Z,17.90
2018-08-24T06:11:03.948Z,17.90
2018-08-24T06:13:33.051Z,17.90
2018-08-24T06:16:01.258Z,18.20
2018-08-24T06:18:29.381Z,18.30
2018-08-24T06:20:57.542Z,18.40
2018-08-24T06:23:26.424Z,18.50
2018-08-24T06:25:54.589Z,19.00
2018-08-24T06:28:23.655Z,19.40
2018-08-24T06:30:52.081Z,19.60
2018-08-24T06:33:23.375Z,19.40
2018-08-24T06:35:53.380Z,19.00
2018-08-24T06:38:21.580Z,18.70
2018-08-24T06:40:49.691Z,18.50
2018-08-24T06:43:19.034Z,18.50
2018-08-24T06:45:47.197Z,18.40
2018-08-24T06:48:15.945Z,18.20
2018-08-24T06:50:44.209Z,18.10
2018-08-24T06:53:13.126Z,18.10
2018-08-24T06:55:41.198Z,18.00
2018-08-24T06:58:09.451Z,17.90
2018-08-24T07:00:37.972Z,17.80
2018-08-24T07:03:06.102Z,17.80
2018-08-24T07:05:35.208Z,17.90
2018-08-24T07:08:04.423Z,17.90
2018-08-24T07:10:34.255Z,17.90
2018-08-24T07:13:02.453Z,17.90
2018-08-24T07:15:30.542Z,17.80
2018-08-24T07:18:01.248Z,18.00
2018-08-24T07:20:30.171Z,18.00
2018-08-24T07:22:58.348Z,17.90
2018-08-24T07:25:27.544Z,17.90
2018-08-24T07:27:56.069Z,17.70
2018-08-24T07:30:24.509Z,17.70
2018-08-24T07:32:53.511Z,17.70
2018-08-24T07:35:21.612Z,17.60
2018-08-24T07:37:50.783Z,17.40
2018-08-24T07:40:18.954Z,17.30
2018-08-24T07:42:47.135Z,17.30
2018-08-24T07:45:15.460Z,17.40
2018-08-24T07:47:43.634Z,17.30
2018-08-24T07:50:12.153Z,17.30
2018-08-24T07:52:40.336Z,17.50
2018-08-24T07:55:08.466Z,17.50
2018-08-24T07:57:36.925Z,17.50
2018-08-24T08:00:05.757Z,17.50
2018-08-24T08:02:39.300Z,17.50
2018-08-24T08:05:07.968Z,17.50
2018-08-24T08:07:36.600Z,17.40
2018-08-24T08:10:04.876Z,17.40
2018-08-24T08:12:33.369Z,17.60
2018-08-24T08:15:06.549Z,17.60
2018-08-24T08:17:36.171Z,17.80
2018-08-24T08:20:04.408Z,18.10
2018-08-24T08:22:32.873Z,18.20
2018-08-24T08:25:01.705Z,18.30
2018-08-24T08:27:30.376Z,18.00
2018-08-24T08:29:59.397Z,17.60
2018-08-24T08:32:28.160Z,17.40
2018-08-24T08:34:57.298Z,17.40
2018-08-24T08:37:25.504Z,17.40
2018-08-24T08:39:57.914Z,17.20
2018-08-24T08:42:26.384Z,17.10
2018-08-24T08:44:54.548Z,17.30
2018-08-24T08:47:23.780Z,17.50
2018-08-24T08:49:52.137Z,17.30
2018-08-24T08:52:20.297Z,17.10
2018-08-24T08:54:49.809Z,17.00
2018-08-24T08:57:18.238Z,16.90
2018-08-24T08:59:47.161Z,16.70
2018-08-24T09:02:16.252Z,16.70
2018-08-24T09:04:44.452Z,16.60
2018-08-24T09:07:14.197Z,16.50
2018-08-24T09:09:42.601Z,16.50
2018-08-24T09:12:10.965Z,16.50
2018-08-24T09:14:41.149Z,16.60
2018-08-24T09:17:14.803Z,16.70
2018-08-24T09:19:48.803Z,16.90
2018-08-24T09:22:22.838Z,17.00
2018-08-24T09:24:56.517Z,17.20
2018-08-24T09:27:29.796Z,17.50
2018-08-24T09:30:01.240Z,17.60
2018-08-24T09:32:29.464Z,17.70
2018-08-24T09:34:58.578Z,17.80
2018-08-24T09:37:32.253Z,17.80
2018-08-24T09:40:00.552Z,17.80
2018-08-24T09:42:28.722Z,17.70
2018-08-24T09:44:56.948Z,17.90
2018-08-24T09:47:30.356Z,18.00
2018-08-24T09:50:03.983Z,18.10
2018-08-24T09:52:32.199Z,18.10
2018-08-24T09:55:00.355Z,18.00
2018-08-24T09:57:28.961Z,17.90
2018-08-24T09:59:57.304Z,17.90
2018-08-24T10:02:31.637Z,18.00
2018-08-24T10:05:05.172Z,18.20
2018-08-24T10:07:38.109Z,18.40
2018-08-24T10:10:07.680Z,18.70
2018-08-24T10:12:37.149Z,18.80
2018-08-24T10:15:07.121Z,19.10
2018-08-24T10:17:35.339Z,19.50
2018-08-24T10:20:04.805Z,19.40
2018-08-24T10:22:33.415Z,19.30
2018-08-24T10:25:02.944Z,19.30
2018-08-24T10:27:31.173Z,19.30
2018-08-24T10:29:59.301Z,19.60
2018-08-24T10:32:27.549Z,20.10
2018-08-24T10:34:55.762Z,20.40
2018-08-24T10:37:24.316Z,20.70
2018-08-24T10:39:52.495Z,21.40
2018-08-24T10:42:20.724Z,22.40
2018-08-24T10:44:48.883Z,23.10
2018-08-24T10:47:17.065Z,23.90
2018-08-24T10:49:45.248Z,24.30
2018-08-24T10:52:13.431Z,24.70
2018-08-24T10:54:42.011Z,24.70
2018-08-24T10:57:10.402Z,24.80
2018-08-24T10:59:38.597Z,24.50
2018-08-24T11:02:06.965Z,23.90
2018-08-24T11:04:34.988Z,23.30
2018-08-24T11:07:04.133Z,23.50
2018-08-24T11:09:32.467Z,24.10
2018-08-24T11:12:00.596Z,24.40
2018-08-24T11:14:28.951Z,25.00
2018-08-24T11:16:58.236Z,25.60
2018-08-24T11:19:26.946Z,25.90
2018-08-24T11:21:55.134Z,26.50
2018-08-24T11:24:23.260Z,26.80
2018-08-24T11:26:52.233Z,27.10
2018-08-24T11:29:21.301Z,27.40
2018-08-24T11:31:49.477Z,27.40
2018-08-24T11:34:17.666Z,27.30
2018-08-24T11:36:46.512Z,26.50
2018-08-24T11:39:14.871Z,25.90
2018-08-24T11:41:43.504Z,25.20
2018-08-24T11:44:11.710Z,24.60
2018-08-24T11:46:40.864Z,23.70
2018-08-24T11:49:09.170Z,23.40
2018-08-24T11:51:37.571Z,22.90
2018-08-24T11:54:06.479Z,22.80
2018-08-24T11:56:35.885Z,22.70
2018-08-24T11:59:06.644Z,22.70
2018-08-24T12:01:34.858Z,22.50
2018-08-24T12:04:04.049Z,22.30
2018-08-24T12:06:33.329Z,22.10
2018-08-24T12:09:02.577Z,22.10
2018-08-24T12:11:30.835Z,22.00
2018-08-24T12:14:00.276Z,21.90
2018-08-24T12:16:28.735Z,22.50
2018-08-24T12:18:57.026Z,23.20
2018-08-24T12:21:25.304Z,23.70
2018-08-24T12:23:53.880Z,24.50
2018-08-24T12:26:23.030Z,25.20
2018-08-24T12:28:51.235Z,25.90
2018-08-24T12:31:19.402Z,26.60
2018-08-24T12:33:48.121Z,27.20
2018-08-24T12:36:16.808Z,27.90
2018-08-24T12:38:45.673Z,28.50
2018-08-24T12:41:13.835Z,28.60
2018-08-24T12:43:42.148Z,29.00
2018-08-24T12:46:10.616Z,29.10
2018-08-24T12:48:40.466Z,29.00
2018-08-24T12:51:09.340Z,28.70
2018-08-24T12:53:37.793Z,29.10
2018-08-24T12:56:10.505Z,29.30
2018-08-24T12:58:40.408Z,29.00
2018-08-24T13:01:09.564Z,29.00
2018-08-24T13:03:37.976Z,29.20
2018-08-24T13:06:07.902Z,28.40
2018-08-24T13:08:36.172Z,27.40
2018-08-24T13:11:05.266Z,26.40
2018-08-24T13:13:34.616Z,26.10
2018-08-24T13:16:02.867Z,25.70
2018-08-24T13:18:31.074Z,24.90
2018-08-24T13:20:59.364Z,24.40
2018-08-24T13:23:27.895Z,24.00
2018-08-24T13:25:56.100Z,23.70
2018-08-24T13:28:25.839Z,24.40
2018-08-24T13:30:53.969Z,25.00
2018-08-24T13:33:22.976Z,25.60
2018-08-24T13:35:51.196Z,25.80
2018-08-24T13:38:19.357Z,25.50
2018-08-24T13:40:48.268Z,24.80
2018-08-24T13:43:16.430Z,24.90
2018-08-24T13:45:44.556Z,25.70
2018-08-24T13:48:13.037Z,26.30
2018-08-24T13:50:41.321Z,26.90
2018-08-24T13:53:09.545Z,27.20
2018-08-24T13:55:37.696Z,26.90
2018-08-24T13:58:05.855Z,26.40
2018-08-24T14:00:34.374Z,25.70
2018-08-24T14:03:02.540Z,25.80
2018-08-24T14:05:30.811Z,26.10
2018-08-24T14:07:58.961Z,26.80
2018-08-24T14:10:27.156Z,27.70
2018-08-24T14:12:55.343Z,28.50
2018-08-24T14:15:23.450Z,29.10
2018-08-24T14:17:54.028Z,29.00
2018-08-24T14:20:23.986Z,28.60
2018-08-24T14:22:52.915Z,28.10
2018-08-24T14:25:21.170Z,27.60
2018-08-24T14:27:49.345Z,27.00
2018-08-24T14:30:17.504Z,26.60
2018-08-24T14:32:46.737Z,26.10
2018-08-24T14:35:14.910Z,25.90
2018-08-24T14:37:43.068Z,25.80
2018-08-24T14:40:11.860Z,25.60
2018-08-24T14:42:40.746Z,25.30
2018-08-24T14:45:08.975Z,25.10
2018-08-24T14:47:37.178Z,25.10
2018-08-24T14:50:06.581Z,25.20
2018-08-24T14:52:35.439Z,24.60
2018-08-24T14:55:03.924Z,24.40
2018-08-24T14:57:32.169Z,24.30
2018-08-24T15:00:00.304Z,24.20
2018-08-24T15:02:28.806Z,23.90
2018-08-24T15:04:57.493Z,24.10
2018-08-24T15:07:25.636Z,24.60
2018-08-24T15:09:54.735Z,25.40
2018-08-24T15:12:22.844Z,25.70
2018-08-24T15:14:51.753Z,25.60
2018-08-24T15:17:19.943Z,25.20
2018-08-24T15:19:48.207Z,25.00
2018-08-24T15:22:17.234Z,24.90
2018-08-24T15:24:46.099Z,24.80
2018-08-24T15:27:14.281Z,24.40
2018-08-24T15:29:43.194Z,24.00
2018-08-24T15:32:11.794Z,23.90
2018-08-24T15:34:39.949Z,24.00
2018-08-24T15:37:08.136Z,23.90
2018-08-24T15:39:36.292Z,23.70
2018-08-24T15:42:04.469Z,23.50
2018-08-24T15:44:33.021Z,23.30
2018-08-24T15:47:01.194Z,23.10
2018-08-24T15:49:29.356Z,22.80
2018-08-24T15:51:58.460Z,22.60
2018-08-24T15:54:33.604Z,22.70
2018-08-24T15:57:02.926Z,22.60
2018-08-24T15:59:31.588Z,22.90
2018-08-24T16:02:00.594Z,23.40
2018-08-24T16:04:29.585Z,23.70
2018-08-24T16:06:58.316Z,23.80
2018-08-24T16:09:26.532Z,23.90
2018-08-24T16:11:55.033Z,23.80
2018-08-24T16:14:23.604Z,23.60
2018-08-24T16:16:51.801Z,23.40
2018-08-24T16:19:19.953Z,23.30
2018-08-24T16:21:48.725Z,23.00
2018-08-24T16:24:16.876Z,23.00
2018-08-24T16:26:45.037Z,22.90
2018-08-24T16:29:13.384Z,22.60
2018-08-24T16:31:41.933Z,22.40
2018-08-24T16:34:10.929Z,22.40
2018-08-24T16:36:39.080Z,22.40
2018-08-24T16:39:08.245Z,22.40
2018-08-24T16:41:36.381Z,22.20
2018-08-24T16:44:04.569Z,22.00
2018-08-24T16:46:33.760Z,21.90
2018-08-24T16:49:03.105Z,21.90
2018-08-24T16:51:31.365Z,21.90
2018-08-24T16:53:59.539Z,21.70
2018-08-24T16:56:27.973Z,21.70
2018-08-24T16:58:56.149Z,21.50
2018-08-24T17:01:24.348Z,21.30
2018-08-24T17:03:52.584Z,21.20
2018-08-24T17:06:20.668Z,21.20
2018-08-24T17:08:48.827Z,21.10
2018-08-24T17:11:16.945Z,21.00
2018-08-24T17:13:45.114Z,20.90
2018-08-24T17:16:13.632Z,20.90
2018-08-24T17:18:42.561Z,20.80
2018-08-24T17:21:10.696Z,20.60
2018-08-24T17:23:39.937Z,20.40
2018-08-24T17:26:08.123Z,20.30
2018-08-24T17:28:36.397Z,20.20
2018-08-24T17:31:05.109Z,20.30
2018-08-24T17:33:34.152Z,20.20
2018-08-24T17:36:04.374Z,20.20
2018-08-24T17:38:32.535Z,20.20
2018-08-24T17:41:00.733Z,20.10
2018-08-24T17:43:29.421Z,19.90
2018-08-24T17:45:58.006Z,19.70
2018-08-24T17:48:26.888Z,19.60
2018-08-24T17:50:55.852Z,19.50
2018-08-24T17:53:24.782Z,19.40
2018-08-24T17:55:53.760Z,19.40
2018-08-24T17:58:22.466Z,19.40
2018-08-24T18:00:50.677Z,19.40
2018-08-24T18:03:18.848Z,19.30
2018-08-24T18:05:47.034Z,19.20
2018-08-24T18:08:15.548Z,19.00
2018-08-24T18:10:43.769Z,18.80
2018-08-24T18:13:13.881Z,18.70
2018-08-24T18:15:42.661Z,18.60
2018-08-24T18:18:10.921Z,18.50
2018-08-24T18:20:39.125Z,18.30
2018-08-24T18:23:07.320Z,18.30
2018-08-24T18:25:35.495Z,18.30
2018-08-24T18:28:04.662Z,18.20
2018-08-24T18:30:32.821Z,18.20
2018-08-24T18:33:00.965Z,18.10
2018-08-24T18:35:29.129Z,17.90
2018-08-24T18:37:57.969Z,17.90
2018-08-24T18:40:26.540Z,17.90
2018-08-24T18:42:54.749Z,17.90
2018-08-24T18:45:22.945Z,17.80
2018-08-24T18:47:51.157Z,17.80
2018-08-24T18:50:20.369Z,17.70
2018-08-24T18:52:48.514Z,17.70
2018-08-24T18:55:16.703Z,17.70
2018-08-24T18:57:44.949Z,17.60
2018-08-24T19:00:13.069Z,17.50
2018-08-24T19:02:41.232Z,17.40
2018-08-24T19:05:09.409Z,17.40
2018-08-24T19:07:37.612Z,17.30
2018-08-24T19:10:05.867Z,17.30
2018-08-24T19:12:34.777Z,17.30
2018-08-24T19:15:03.112Z,17.20
2018-08-24T19:17:37.547Z,17.10
2018-08-24T19:20:11.071Z,17.00
2018-08-24T19:22:44.475Z,17.00
2018-08-24T19:25:12.665Z,17.00
2018-08-24T19:27:46.599Z,16.90
2018-08-24T19:30:19.948Z,16.90
2018-08-24T19:32:48.175Z,16.80
2018-08-24T19:35:16.285Z,16.70
2018-08-24T19:37:44.712Z,16.70
2018-08-24T19:40:18.201Z,16.70
2018-08-24T19:42:46.678Z,16.70
2018-08-24T19:45:15.630Z,16.60
2018-08-24T19:47:49.663Z,16.60
2018-08-24T19:50:17.905Z,16.60
2018-08-24T19:52:46.121Z,16.60
2018-08-24T19:55:14.614Z,16.60
2018-08-24T19:57:48.190Z,16.50
2018-08-24T20:00:16.380Z,16.40
2018-08-24T20:02:44.810Z,16.50
2018-08-24T20:05:12.991Z,16.50
2018-08-24T20:07:46.508Z,16.50
2018-08-24T20:10:17.503Z,16.40
2018-08-24T20:12:46.557Z,16.40
2018-08-24T20:15:20.293Z,16.40
2018-08-24T20:17:48.449Z,16.30
2018-08-24T20:20:16.699Z,16.20
2018-08-24T20:22:44.850Z,16.20
2018-08-24T20:25:13.032Z,16.10
2018-08-24T20:27:41.216Z,16.10
2018-08-24T20:30:09.816Z,16.10
2018-08-24T20:32:38.038Z,16.10
2018-08-24T20:35:07.005Z,16.00
2018-08-24T20:37:35.203Z,16.00
2018-08-24T20:40:04.808Z,16.00
2018-08-24T20:42:32.964Z,15.90
2018-08-24T20:45:01.986Z,15.80
2018-08-24T20:47:30.187Z,15.80
2018-08-24T20:49:59.035Z,15.70
2018-08-24T20:52:27.392Z,15.70
2018-08-24T20:54:55.554Z,15.70
2018-08-24T20:57:23.766Z,15.70
2018-08-24T20:59:52.351Z,15.70
2018-08-24T21:02:20.556Z,15.70
2018-08-24T21:04:48.755Z,15.60
2018-08-24T21:07:16.916Z,15.60
2018-08-24T21:09:45.120Z,15.60
2018-08-24T21:12:13.268Z,15.60
2018-08-24T21:14:41.465Z,15.60
2018-08-24T21:17:09.653Z,15.60
2018-08-24T21:19:38.769Z,15.60
2018-08-24T21:22:06.989Z,15.60
2018-08-24T21:24:35.179Z,15.50
2018-08-24T21:27:04.621Z,15.50
2018-08-24T21:29:32.747Z,15.50
2018-08-24T21:32:00.888Z,15.50
2018-08-24T21:34:29.048Z,15.50
2018-08-24T21:36:57.220Z,15.50
2018-08-24T21:39:25.427Z,15.50
2018-08-24T21:41:53.579Z,15.50
2018-08-24T21:44:21.724Z,15.50
2018-08-24T21:46:49.862Z,15.50
2018-08-24T21:49:18.061Z,15.50
2018-08-24T21:51:46.238Z,15.50
2018-08-24T21:54:14.414Z,15.50
2018-08-24T21:56:42.566Z,15.50
2018-08-24T21:59:12.069Z,15.50
2018-08-24T22:01:40.230Z,15.50
2018-08-24T22:04:08.393Z,15.50
2018-08-24T22:06:36.913Z,15.50
2018-08-24T22:09:09.302Z,15.50
2018-08-24T22:11:38.653Z,15.40
2018-08-24T22:14:06.832Z,15.40
2018-08-24T22:16:35.057Z,15.30
2018-08-24T22:19:04.160Z,15.20
2018-08-24T22:21:32.350Z,15.20
2018-08-24T22:24:01.217Z,15.20
2018-08-24T22:26:29.423Z,15.20
2018-08-24T22:28:58.800Z,15.10
2018-08-24T22:31:26.929Z,15.10
2018-08-24T22:33:55.062Z,15.10
2018-08-24T22:36:23.259Z,15.10
2018-08-24T22:38:52.056Z,15.10
2018-08-24T22:41:20.187Z,15.10
2018-08-24T22:43:48.388Z,15.10
2018-08-24T22:46:16.627Z,15.10
2018-08-24T22:48:45.446Z,15.00
2018-08-24T22:51:13.615Z,15.00
2018-08-24T22:53:41.766Z,15.00
2018-08-24T22:56:09.939Z,15.00
2018-08-24T22:58:38.136Z,15.00
2018-08-24T23:01:07.299Z,15.00
2018-08-24T23:03:35.456Z,15.00
2018-08-24T23:06:03.678Z,15.00
2018-08-24T23:08:32.044Z,15.00
2018-08-24T23:11:00.301Z,15.00
2018-08-24T23:13:28.793Z,15.00
2018-08-24T23:15:56.965Z,15.10
2018-08-24T23:18:25.697Z,15.10
2018-08-24T23:20:53.880Z,15.20
2018-08-24T23:23:22.084Z,15.20
2018-08-24T23:25:50.561Z,15.20
2018-08-24T23:28:18.701Z,15.20
2018-08-24T23:30:47.143Z,15.10
2018-08-24T23:33:15.324Z,15.10
2018-08-24T23:35:44.412Z,15.10
2018-08-24T23:38:12.585Z,14.90
2018-08-24T23:40:40.728Z,14.90
2018-08-24T23:43:08.885Z,14.90
2018-08-24T23:45:37.061Z,14.90
2018-08-24T23:48:05.288Z,15.00
2018-08-24T23:50:34.072Z,15.00
2018-08-24T23:53:03.570Z,14.90
2018-08-24T23:55:33.908Z,14.90
2018-08-24T23:58:03.501Z,14.90
